sensor_id;sensor_type;location;lat;lon;timestamp;pressure;altitude;pressure_sealevel;temperature;humidity
63405;BME280;49541;57.840;12.306;2022-12-07T00:04:53;100145.38;;;0.54;74.90
63405;BME280;49541;57.840;12.306;2022-12-07T00:09:53;100139.44;;;1.48;72.96
63405;BME280;49541;57.840;12.306;2022-12-07T00:14:53;100135.06;;;1.78;69.61
63405;BME280;49541;57.840;12.306;2022-12-07T00:19:54;100131.38;;;1.67;70.24
63405;BME280;49541;57.840;12.306;2022-12-07T00:24:54;100132.81;;;0.77;72.68
63405;BME280;49541;57.840;12.306;2022-12-07T00:29:54;100126.34;;;0.67;73.60
63405;BME280;49541;57.840;12.306;2022-12-07T00:34:54;100116.59;;;1.18;73.26
63405;BME280;49541;57.840;12.306;2022-12-07T00:39:54;100136.25;;;1.27;73.02
63405;BME280;49541;57.840;12.306;2022-12-07T00:44:54;100123.03;;;1.44;72.10
63405;BME280;49541;57.840;12.306;2022-12-07T00:49:55;100123.56;;;1.35;72.38
63405;BME280;49541;57.840;12.306;2022-12-07T00:54:55;100106.63;;;1.25;72.24
63405;BME280;49541;57.840;12.306;2022-12-07T00:59:55;100108.00;;;1.32;72.19
63405;BME280;49541;57.840;12.306;2022-12-07T01:04:57;100103.59;;;1.00;72.43
63405;BME280;49541;57.840;12.306;2022-12-07T01:09:57;100091.41;;;1.15;72.24
63405;BME280;49541;57.840;12.306;2022-12-07T01:14:57;100089.19;;;1.39;71.71
63405;BME280;49541;57.840;12.306;2022-12-07T01:19:58;100085.22;;;1.32;71.88
63405;BME280;49541;57.840;12.306;2022-12-07T01:24:58;100076.63;;;1.60;71.15
63405;BME280;49541;57.840;12.306;2022-12-07T01:29:58;100077.78;;;1.25;71.73
63405;BME280;49541;57.840;12.306;2022-12-07T01:34:58;100078.34;;;1.46;71.56
63405;BME280;49541;57.840;12.306;2022-12-07T01:39:58;100074.91;;;1.13;71.29
63405;BME280;49541;57.840;12.306;2022-12-07T01:50:17;100072.63;;;1.07;71.68
63405;BME280;49541;57.840;12.306;2022-12-07T01:55:18;100067.03;;;1.13;72.40
63405;BME280;49541;57.840;12.306;2022-12-07T02:00:19;100071.00;;;1.20;71.61
63405;BME280;49541;57.840;12.306;2022-12-07T02:05:19;100055.41;;;1.49;71.31
63405;BME280;49541;57.840;12.306;2022-12-07T02:10:21;100046.72;;;1.33;71.36
63405;BME280;49541;57.840;12.306;2022-12-07T02:15:22;100042.25;;;1.03;72.06
63405;BME280;49541;57.840;12.306;2022-12-07T02:30:30;100043.81;;;0.75;73.33
63405;BME280;49541;57.840;12.306;2022-12-07T02:40:33;100038.13;;;0.67;74.60
63405;BME280;49541;57.840;12.306;2022-12-07T02:45:36;100035.44;;;0.85;74.38
63405;BME280;49541;57.840;12.306;2022-12-07T02:50:38;100035.75;;;0.78;74.29
63405;BME280;49541;57.840;12.306;2022-12-07T02:55:39;100034.06;;;0.61;74.79
63405;BME280;49541;57.840;12.306;2022-12-07T03:00:46;100023.00;;;0.23;76.09
63405;BME280;49541;57.840;12.306;2022-12-07T03:11:08;100007.91;;;-0.05;77.89
63405;BME280;49541;57.840;12.306;2022-12-07T03:16:14;100001.88;;;-0.40;79.13
63405;BME280;49541;57.840;12.306;2022-12-07T03:21:16;100006.44;;;-0.28;79.22
63405;BME280;49541;57.840;12.306;2022-12-07T03:26:17;100006.13;;;-0.22;78.55
63405;BME280;49541;57.840;12.306;2022-12-07T03:31:23;100001.38;;;-0.31;79.54
63405;BME280;49541;57.840;12.306;2022-12-07T03:41:29;100007.53;;;-0.15;79.67
63405;BME280;49541;57.840;12.306;2022-12-07T03:51:41;99994.75;;;-0.04;80.58
63405;BME280;49541;57.840;12.306;2022-12-07T03:56:43;99999.28;;;-0.07;80.13
63405;BME280;49541;57.840;12.306;2022-12-07T04:01:44;99989.25;;;0.50;79.48
63405;BME280;49541;57.840;12.306;2022-12-07T04:06:45;99987.03;;;0.43;79.14
63405;BME280;49541;57.840;12.306;2022-12-07T04:11:45;99981.03;;;0.40;79.16
63405;BME280;49541;57.840;12.306;2022-12-07T04:21:46;99972.34;;;0.24;80.87
63405;BME280;49541;57.840;12.306;2022-12-07T04:26:46;99960.34;;;0.36;81.46
63405;BME280;49541;57.840;12.306;2022-12-07T04:31:47;99954.78;;;0.26;81.11
63405;BME280;49541;57.840;12.306;2022-12-07T04:36:47;99959.91;;;0.12;81.78
63405;BME280;49541;57.840;12.306;2022-12-07T04:41:48;99959.56;;;0.34;81.92
63405;BME280;49541;57.840;12.306;2022-12-07T04:46:48;99961.69;;;0.11;81.98
63405;BME280;49541;57.840;12.306;2022-12-07T04:51:49;99961.69;;;0.27;82.21
63405;BME280;49541;57.840;12.306;2022-12-07T04:56:49;99952.56;;;0.18;81.78
63405;BME280;49541;57.840;12.306;2022-12-07T05:01:49;99958.81;;;0.16;81.82
63405;BME280;49541;57.840;12.306;2022-12-07T05:06:49;99961.56;;;0.13;81.84
63405;BME280;49541;57.840;12.306;2022-12-07T05:11:50;99953.25;;;0.38;81.63
63405;BME280;49541;57.840;12.306;2022-12-07T05:16:50;99950.13;;;0.31;81.27
63405;BME280;49541;57.840;12.306;2022-12-07T05:21:50;99955.13;;;0.52;79.89
63405;BME280;49541;57.840;12.306;2022-12-07T05:26:50;99946.69;;;0.63;80.37
63405;BME280;49541;57.840;12.306;2022-12-07T05:31:51;99944.31;;;0.26;81.13
63405;BME280;49541;57.840;12.306;2022-12-07T05:36:51;99939.91;;;0.27;81.57
63405;BME280;49541;57.840;12.306;2022-12-07T05:41:51;99942.25;;;0.47;80.90
63405;BME280;49541;57.840;12.306;2022-12-07T05:47:10;99941.06;;;0.21;81.84
63405;BME280;49541;57.840;12.306;2022-12-07T05:52:10;99934.47;;;0.30;81.28
63405;BME280;49541;57.840;12.306;2022-12-07T05:57:11;99939.22;;;0.23;81.59
63405;BME280;49541;57.840;12.306;2022-12-07T06:02:12;99935.75;;;0.38;81.91
63405;BME280;49541;57.840;12.306;2022-12-07T06:07:14;99932.38;;;0.52;81.23
63405;BME280;49541;57.840;12.306;2022-12-07T06:12:14;99941.41;;;0.47;82.20
63405;BME280;49541;57.840;12.306;2022-12-07T06:17:33;99941.84;;;0.39;82.23
63405;BME280;49541;57.840;12.306;2022-12-07T06:22:33;99941.09;;;0.37;82.22
63405;BME280;49541;57.840;12.306;2022-12-07T06:27:34;99936.69;;;0.53;82.72
63405;BME280;49541;57.840;12.306;2022-12-07T06:32:36;99939.91;;;0.43;82.53
63405;BME280;49541;57.840;12.306;2022-12-07T06:37:36;99940.25;;;0.52;81.55
63405;BME280;49541;57.840;12.306;2022-12-07T06:42:36;99936.69;;;0.53;82.66
63405;BME280;49541;57.840;12.306;2022-12-07T06:47:36;99937.69;;;0.67;81.96
63405;BME280;49541;57.840;12.306;2022-12-07T06:52:36;99936.66;;;0.85;82.69
63405;BME280;49541;57.840;12.306;2022-12-07T06:57:37;99931.50;;;0.84;82.07
63405;BME280;49541;57.840;12.306;2022-12-07T07:02:37;99935.00;;;0.84;80.93
63405;BME280;49541;57.840;12.306;2022-12-07T07:07:37;99940.75;;;0.59;81.07
63405;BME280;49541;57.840;12.306;2022-12-07T07:12:37;99938.91;;;0.61;80.94
63405;BME280;49541;57.840;12.306;2022-12-07T07:17:37;99939.06;;;0.74;81.02
63405;BME280;49541;57.840;12.306;2022-12-07T07:22:38;99939.41;;;0.52;80.88
63405;BME280;49541;57.840;12.306;2022-12-07T07:27:38;99959.00;;;0.45;81.08
63405;BME280;49541;57.840;12.306;2022-12-07T07:32:38;99959.25;;;0.56;81.66
63405;BME280;49541;57.840;12.306;2022-12-07T07:37:38;99951.06;;;0.46;81.55
63405;BME280;49541;57.840;12.306;2022-12-07T07:42:38;99956.13;;;0.65;81.30
63405;BME280;49541;57.840;12.306;2022-12-07T07:47:39;99962.72;;;0.72;80.77
63405;BME280;49541;57.840;12.306;2022-12-07T07:52:39;99962.22;;;0.50;80.53
63405;BME280;49541;57.840;12.306;2022-12-07T07:57:39;99958.31;;;0.57;80.77
63405;BME280;49541;57.840;12.306;2022-12-07T08:02:40;99957.06;;;0.64;80.30
63405;BME280;49541;57.840;12.306;2022-12-07T08:07:41;99956.13;;;0.65;80.24
63405;BME280;49541;57.840;12.306;2022-12-07T08:12:41;99954.16;;;0.69;79.83
63405;BME280;49541;57.840;12.306;2022-12-07T08:18:01;99957.06;;;0.64;79.99
63405;BME280;49541;57.840;12.306;2022-12-07T08:23:01;99954.44;;;0.80;79.98
63405;BME280;49541;57.840;12.306;2022-12-07T08:28:02;99954.63;;;1.07;78.60
63405;BME280;49541;57.840;12.306;2022-12-07T08:33:02;99960.41;;;0.98;77.88
63405;BME280;49541;57.840;12.306;2022-12-07T08:38:03;99955.16;;;0.98;76.81
63405;BME280;49541;57.840;12.306;2022-12-07T08:43:03;99953.41;;;0.82;77.60
63405;BME280;49541;57.840;12.306;2022-12-07T08:48:07;99956.97;;;0.66;78.17
63405;BME280;49541;57.840;12.306;2022-12-07T08:53:10;99957.66;;;0.69;77.39
63405;BME280;49541;57.840;12.306;2022-12-07T08:58:10;99940.63;;;0.92;77.43
63405;BME280;49541;57.840;12.306;2022-12-07T09:03:10;99947.38;;;0.96;77.10
63405;BME280;49541;57.840;12.306;2022-12-07T09:08:10;99956.50;;;1.05;76.07
63405;BME280;49541;57.840;12.306;2022-12-07T09:13:11;99958.97;;;1.08;75.66
63405;BME280;49541;57.840;12.306;2022-12-07T09:18:11;99956.94;;;0.81;76.34
63405;BME280;49541;57.840;12.306;2022-12-07T09:23:11;99969.13;;;0.82;76.52
63405;BME280;49541;57.840;12.306;2022-12-07T09:28:11;99965.34;;;0.72;77.06
63405;BME280;49541;57.840;12.306;2022-12-07T09:33:12;99950.94;;;0.79;77.22
63405;BME280;49541;57.840;12.306;2022-12-07T09:38:12;99945.97;;;0.75;76.88
63405;BME280;49541;57.840;12.306;2022-12-07T09:43:13;99957.63;;;0.85;76.55
63405;BME280;49541;57.840;12.306;2022-12-07T09:48:18;99950.03;;;0.80;76.64
63405;BME280;49541;57.840;12.306;2022-12-07T09:53:20;99959.50;;;0.83;76.87
63405;BME280;49541;57.840;12.306;2022-12-07T09:58:25;99946.00;;;1.05;74.71
63405;BME280;49541;57.840;12.306;2022-12-07T10:03:26;99951.31;;;1.19;74.82
63405;BME280;49541;57.840;12.306;2022-12-07T10:08:26;99957.84;;;1.12;74.56
63405;BME280;49541;57.840;12.306;2022-12-07T10:13:37;99952.88;;;1.08;74.82
63405;BME280;49541;57.840;12.306;2022-12-07T10:18:38;99948.75;;;1.34;74.73
63405;BME280;49541;57.840;12.306;2022-12-07T10:23:42;99943.72;;;1.59;74.39
63405;BME280;49541;57.840;12.306;2022-12-07T10:28:42;99933.81;;;1.79;73.61
63405;BME280;49541;57.840;12.306;2022-12-07T10:33:53;99939.44;;;1.28;73.92
63405;BME280;49541;57.840;12.306;2022-12-07T10:44:00;99933.31;;;1.58;73.08
63405;BME280;49541;57.840;12.306;2022-12-07T11:14:44;99920.69;;;1.20;72.70
63405;BME280;49541;57.840;12.306;2022-12-07T11:25:16;99904.44;;;1.43;72.09
63405;BME280;49541;57.840;12.306;2022-12-07T11:40:25;99923.50;;;1.61;70.40
63405;BME280;49541;57.840;12.306;2022-12-07T11:45:31;99917.03;;;1.81;69.74
63405;BME280;49541;57.840;12.306;2022-12-07T11:50:37;99922.94;;;1.71;69.17
63405;BME280;49541;57.840;12.306;2022-12-07T11:55:41;99915.06;;;1.71;68.23
63405;BME280;49541;57.840;12.306;2022-12-07T12:00:42;99916.66;;;1.73;69.15
63405;BME280;49541;57.840;12.306;2022-12-07T12:05:42;99906.03;;;1.60;69.17
63405;BME280;49541;57.840;12.306;2022-12-07T12:15:46;99900.16;;;3.61;63.79
63405;BME280;49541;57.840;12.306;2022-12-07T12:20:54;99904.56;;;3.74;60.75
63405;BME280;49541;57.840;12.306;2022-12-07T12:25:59;99901.09;;;3.73;59.98
63405;BME280;49541;57.840;12.306;2022-12-07T12:31:05;99903.22;;;3.81;59.66
63405;BME280;49541;57.840;12.306;2022-12-07T12:46:38;99899.50;;;3.19;60.54
63405;BME280;49541;57.840;12.306;2022-12-07T13:07:10;99893.28;;;2.12;62.04
63405;BME280;49541;57.840;12.306;2022-12-07T13:12:14;99886.09;;;2.01;63.22
63405;BME280;49541;57.840;12.306;2022-12-07T13:27:31;99888.56;;;1.16;66.51
63405;BME280;49541;57.840;12.306;2022-12-07T13:32:32;99887.66;;;1.32;65.53
63405;BME280;49541;57.840;12.306;2022-12-07T13:37:32;99890.44;;;1.14;65.32
63405;BME280;49541;57.840;12.306;2022-12-07T13:42:33;99879.69;;;0.73;67.60
63405;BME280;49541;57.840;12.306;2022-12-07T13:47:41;99891.81;;;0.59;67.81
63405;BME280;49541;57.840;12.306;2022-12-07T13:52:44;99892.16;;;0.37;69.17
63405;BME280;49541;57.840;12.306;2022-12-07T13:57:46;99885.13;;;0.70;68.83
63405;BME280;49541;57.840;12.306;2022-12-07T14:18:37;99877.19;;;0.71;66.33
63405;BME280;49541;57.840;12.306;2022-12-07T14:23:38;99870.78;;;0.29;67.54
63405;BME280;49541;57.840;12.306;2022-12-07T14:28:39;99865.22;;;0.35;66.35
63405;BME280;49541;57.840;12.306;2022-12-07T14:33:40;99870.88;;;0.12;66.48
63405;BME280;49541;57.840;12.306;2022-12-07T14:38:41;99864.56;;;-0.33;67.17
63405;BME280;49541;57.840;12.306;2022-12-07T14:43:41;99862.84;;;-0.50;67.09
63405;BME280;49541;57.840;12.306;2022-12-07T14:48:41;99863.94;;;-0.54;67.05
63405;BME280;49541;57.840;12.306;2022-12-07T14:53:43;99855.97;;;-0.86;67.36
63405;BME280;49541;57.840;12.306;2022-12-07T14:58:44;99859.44;;;-0.86;67.42
63405;BME280;49541;57.840;12.306;2022-12-07T15:03:44;99849.97;;;-1.23;68.12
63405;BME280;49541;57.840;12.306;2022-12-07T15:08:45;99848.53;;;-1.29;68.26
63405;BME280;49541;57.840;12.306;2022-12-07T15:13:45;99852.41;;;-1.91;69.90
63405;BME280;49541;57.840;12.306;2022-12-07T15:19:04;99839.31;;;-1.72;69.72
63405;BME280;49541;57.840;12.306;2022-12-07T15:24:04;99842.09;;;-1.94;70.08
63405;BME280;49541;57.840;12.306;2022-12-07T15:29:04;99834.25;;;-1.75;69.98
63405;BME280;49541;57.840;12.306;2022-12-07T15:34:04;99836.16;;;-1.79;69.78
63405;BME280;49541;57.840;12.306;2022-12-07T15:39:05;99831.34;;;-1.69;69.26
63405;BME280;49541;57.840;12.306;2022-12-07T15:44:05;99833.47;;;-1.77;67.79
63405;BME280;49541;57.840;12.306;2022-12-07T15:49:24;99846.31;;;-1.92;66.33
63405;BME280;49541;57.840;12.306;2022-12-07T15:54:25;99843.94;;;-1.96;66.52
63405;BME280;49541;57.840;12.306;2022-12-07T15:59:26;99828.81;;;-1.71;64.43
63405;BME280;49541;57.840;12.306;2022-12-07T16:04:28;99839.78;;;-2.19;67.89
63405;BME280;49541;57.840;12.306;2022-12-07T16:09:29;99834.84;;;-2.25;69.07
63405;BME280;49541;57.840;12.306;2022-12-07T16:14:29;99827.22;;;-1.92;67.28
63405;BME280;49541;57.840;12.306;2022-12-07T16:19:32;99829.91;;;-2.13;66.58
63405;BME280;49541;57.840;12.306;2022-12-07T16:24:32;99833.38;;;-2.31;64.98
63405;BME280;49541;57.840;12.306;2022-12-07T16:29:32;99822.06;;;-2.51;65.03
63405;BME280;49541;57.840;12.306;2022-12-07T16:34:33;99825.75;;;-2.36;64.35
63405;BME280;49541;57.840;12.306;2022-12-07T16:39:33;99823.75;;;-2.50;63.92
63405;BME280;49541;57.840;12.306;2022-12-07T16:44:34;99815.16;;;-2.71;63.68
63405;BME280;49541;57.840;12.306;2022-12-07T16:49:34;99819.78;;;-2.77;63.17
63405;BME280;49541;57.840;12.306;2022-12-07T16:54:35;99824.22;;;-3.00;64.53
63405;BME280;49541;57.840;12.306;2022-12-07T16:59:35;99822.53;;;-3.42;66.49
63405;BME280;49541;57.840;12.306;2022-12-07T17:04:36;99822.00;;;-2.89;64.38
63405;BME280;49541;57.840;12.306;2022-12-07T17:09:38;99812.63;;;-2.93;64.28
63405;BME280;49541;57.840;12.306;2022-12-07T17:14:38;99811.78;;;-2.93;65.69
63405;BME280;49541;57.840;12.306;2022-12-07T17:19:57;99801.84;;;-3.24;65.04
63405;BME280;49541;57.840;12.306;2022-12-07T17:24:57;99801.16;;;-3.50;66.15
63405;BME280;49541;57.840;12.306;2022-12-07T17:29:57;99793.03;;;-3.85;65.91
63405;BME280;49541;57.840;12.306;2022-12-07T17:34:57;99802.53;;;-3.84;67.34
63405;BME280;49541;57.840;12.306;2022-12-07T17:39:58;99800.28;;;-3.93;66.75
63405;BME280;49541;57.840;12.306;2022-12-07T17:44:58;99790.97;;;-3.99;66.48
63405;BME280;49541;57.840;12.306;2022-12-07T17:49:58;99779.66;;;-3.76;63.92
63405;BME280;49541;57.840;12.306;2022-12-07T17:54:58;99777.91;;;-3.97;65.46
63405;BME280;49541;57.840;12.306;2022-12-07T17:59:59;99788.63;;;-4.50;65.10
63405;BME280;49541;57.840;12.306;2022-12-07T18:04:59;99784.91;;;-3.77;63.62
63405;BME280;49541;57.840;12.306;2022-12-07T18:09:59;99782.78;;;-4.12;65.32
63405;BME280;49541;57.840;12.306;2022-12-07T18:14:59;99789.41;;;-4.48;64.58
63405;BME280;49541;57.840;12.306;2022-12-07T18:19:59;99788.25;;;-4.41;64.27
63405;BME280;49541;57.840;12.306;2022-12-07T18:25:00;99775.22;;;-4.63;63.94
63405;BME280;49541;57.840;12.306;2022-12-07T18:30:00;99776.97;;;-4.64;62.45
63405;BME280;49541;57.840;12.306;2022-12-07T18:35:00;99774.31;;;-3.73;60.63
63405;BME280;49541;57.840;12.306;2022-12-07T18:40:00;99771.88;;;-4.67;62.88
63405;BME280;49541;57.840;12.306;2022-12-07T18:45:01;99775.19;;;-5.10;66.94
63405;BME280;49541;57.840;12.306;2022-12-07T18:50:01;99774.72;;;-5.22;66.64
63405;BME280;49541;57.840;12.306;2022-12-07T18:55:02;99769.31;;;-5.41;65.27
63405;BME280;49541;57.840;12.306;2022-12-07T19:00:03;99759.78;;;-5.15;65.82
63405;BME280;49541;57.840;12.306;2022-12-07T19:05:03;99757.59;;;-5.27;64.55
63405;BME280;49541;57.840;12.306;2022-12-07T19:10:04;99758.47;;;-5.27;63.97
63405;BME280;49541;57.840;12.306;2022-12-07T19:15:07;99749.72;;;-5.24;63.81
63405;BME280;49541;57.840;12.306;2022-12-07T19:20:08;99746.28;;;-5.01;62.95
63405;BME280;49541;57.840;12.306;2022-12-07T19:25:09;99749.94;;;-5.30;64.09
63405;BME280;49541;57.840;12.306;2022-12-07T19:30:09;99739.22;;;-4.96;60.84
63405;BME280;49541;57.840;12.306;2022-12-07T19:35:10;99746.25;;;-5.48;64.41
63405;BME280;49541;57.840;12.306;2022-12-07T19:40:10;99744.72;;;-5.81;64.89
63405;BME280;49541;57.840;12.306;2022-12-07T19:45:11;99731.25;;;-5.65;63.56
63405;BME280;49541;57.840;12.306;2022-12-07T19:50:11;99734.38;;;-6.35;64.82
63405;BME280;49541;57.840;12.306;2022-12-07T19:55:11;99733.84;;;-5.65;63.42
63405;BME280;49541;57.840;12.306;2022-12-07T20:00:11;99735.25;;;-5.31;61.13
63405;BME280;49541;57.840;12.306;2022-12-07T20:05:12;99745.06;;;-5.65;63.11
63405;BME280;49541;57.840;12.306;2022-12-07T20:10:12;99742.50;;;-6.76;65.95
63405;BME280;49541;57.840;12.306;2022-12-07T20:15:12;99734.31;;;-7.23;68.68
63405;BME280;49541;57.840;12.306;2022-12-07T20:20:12;99729.84;;;-7.49;69.64
63405;BME280;49541;57.840;12.306;2022-12-07T20:25:12;99725.16;;;-7.35;69.67
63405;BME280;49541;57.840;12.306;2022-12-07T20:30:12;99718.50;;;-7.12;65.92
63405;BME280;49541;57.840;12.306;2022-12-07T20:35:13;99716.56;;;-6.46;64.62
63405;BME280;49541;57.840;12.306;2022-12-07T20:40:13;99721.94;;;-6.82;65.92
63405;BME280;49541;57.840;12.306;2022-12-07T20:45:13;99720.00;;;-6.46;64.24
63405;BME280;49541;57.840;12.306;2022-12-07T20:50:13;99734.09;;;-6.84;64.53
63405;BME280;49541;57.840;12.306;2022-12-07T20:55:13;99733.28;;;-6.56;65.75
63405;BME280;49541;57.840;12.306;2022-12-07T21:00:14;99720.59;;;-6.64;64.83
63405;BME280;49541;57.840;12.306;2022-12-07T21:05:14;99719.81;;;-6.40;63.42
63405;BME280;49541;57.840;12.306;2022-12-07T21:10:14;99733.75;;;-6.72;62.83
63405;BME280;49541;57.840;12.306;2022-12-07T21:15:14;99728.66;;;-7.05;65.26
63405;BME280;49541;57.840;12.306;2022-12-07T21:20:15;99730.63;;;-6.83;66.95
63405;BME280;49541;57.840;12.306;2022-12-07T21:25:15;99725.38;;;-7.43;68.92
63405;BME280;49541;57.840;12.306;2022-12-07T21:30:15;99724.41;;;-7.71;70.31
63405;BME280;49541;57.840;12.306;2022-12-07T21:35:15;99720.06;;;-7.71;70.38
63405;BME280;49541;57.840;12.306;2022-12-07T21:40:15;99714.13;;;-8.43;71.84
63405;BME280;49541;57.840;12.306;2022-12-07T21:45:16;99698.63;;;-8.43;73.77
63405;BME280;49541;57.840;12.306;2022-12-07T21:50:16;99713.25;;;-8.08;72.09
63405;BME280;49541;57.840;12.306;2022-12-07T21:55:16;99706.81;;;-7.57;69.07
63405;BME280;49541;57.840;12.306;2022-12-07T22:00:16;99708.69;;;-7.98;68.70
63405;BME280;49541;57.840;12.306;2022-12-07T22:05:17;99703.25;;;-8.21;69.84
63405;BME280;49541;57.840;12.306;2022-12-07T22:10:17;99700.88;;;-7.95;68.75
63405;BME280;49541;57.840;12.306;2022-12-07T22:15:27;99701.69;;;-7.93;68.36
63405;BME280;49541;57.840;12.306;2022-12-07T22:20:27;99692.56;;;-8.42;68.82
63405;BME280;49541;57.840;12.306;2022-12-07T22:25:27;99688.91;;;-7.99;68.80
63405;BME280;49541;57.840;12.306;2022-12-07T22:30:28;99695.63;;;-8.63;69.84
63405;BME280;49541;57.840;12.306;2022-12-07T22:35:28;99694.84;;;-7.95;69.48
63405;BME280;49541;57.840;12.306;2022-12-07T22:40:28;99686.97;;;-7.91;68.72
63405;BME280;49541;57.840;12.306;2022-12-07T22:45:28;99697.56;;;-8.00;68.16
63405;BME280;49541;57.840;12.306;2022-12-07T22:50:28;99690.06;;;-8.11;68.75
63405;BME280;49541;57.840;12.306;2022-12-07T22:55:29;99682.72;;;-8.28;69.59
63405;BME280;49541;57.840;12.306;2022-12-07T23:00:29;99690.13;;;-7.79;67.75
63405;BME280;49541;57.840;12.306;2022-12-07T23:05:29;99677.47;;;-8.25;69.20
63405;BME280;49541;57.840;12.306;2022-12-07T23:10:29;99679.66;;;-8.79;70.58
63405;BME280;49541;57.840;12.306;2022-12-07T23:15:32;99667.22;;;-9.02;70.94
63405;BME280;49541;57.840;12.306;2022-12-07T23:20:32;99666.53;;;-9.11;71.36
63405;BME280;49541;57.840;12.306;2022-12-07T23:25:32;99671.91;;;-8.42;69.90
63405;BME280;49541;57.840;12.306;2022-12-07T23:30:32;99664.31;;;-8.15;66.05
63405;BME280;49541;57.840;12.306;2022-12-07T23:35:33;99655.03;;;-8.57;66.49
63405;BME280;49541;57.840;12.306;2022-12-07T23:40:33;99654.44;;;-8.68;67.05
63405;BME280;49541;57.840;12.306;2022-12-07T23:45:33;99640.94;;;-8.79;66.90
63405;BME280;49541;57.840;12.306;2022-12-07T23:50:33;99644.94;;;-9.05;68.45
63405;BME280;49541;57.840;12.306;2022-12-07T23:55:33;99638.44;;;-9.66;69.29
